Time;durP1;ratioP1;P1;durP2;ratioP2;P2;SDS_P1;SDS_P2;PMS_P1;PMS_P2;Temp;Humidity;BMP_temperature;BMP_pressure;BME280_temperature;BME280_humidity;BME280_pressure;Samples;Min_cycle;Max_cycle;Signal;HPM_P1;HPM_P2
2021/05/04 00:00:14;;;;;;;2.12;0.98;;;;;;;22.59;48.44;100961.50;1774762;79;21589;-62
2021/05/04 00:02:42;;;;;;;1.07;0.70;;;;;;;22.59;48.47;100955.95;1773307;79;21239;-62
2021/05/04 00:05:11;;;;;;;2.85;1.10;;;;;;;22.57;48.49;100957.69;1763392;79;21136;-62
2021/05/04 00:07:37;;;;;;;0.90;0.85;;;;;;;22.56;48.52;100960.77;1771446;79;21518;-62
2021/05/04 00:10:05;;;;;;;2.12;1.20;;;;;;;22.55;48.54;100966.89;1781864;79;21498;-62
2021/05/04 00:12:32;;;;;;;1.37;0.95;;;;;;;22.55;48.57;100964.68;1772553;79;21203;-62
2021/05/04 00:14:59;;;;;;;1.20;0.80;;;;;;;22.53;48.57;100967.77;1770271;79;21232;-62
2021/05/04 00:17:25;;;;;;;1.50;1.00;;;;;;;22.52;48.58;100970.32;1773306;79;21174;-62
2021/05/04 00:19:52;;;;;;;1.30;0.90;;;;;;;22.52;48.63;100976.44;1766847;79;21313;-62
2021/05/04 00:22:18;;;;;;;1.10;0.90;;;;;;;22.50;48.64;100969.81;1773502;79;20974;-62
2021/05/04 00:24:45;;;;;;;1.17;0.95;;;;;;;22.51;48.66;100977.56;1772500;79;21273;-62
2021/05/04 00:27:11;;;;;;;1.30;1.00;;;;;;;22.49;48.67;100979.27;1771464;79;21147;-62
2021/05/04 00:29:37;;;;;;;1.35;0.88;;;;;;;22.48;48.69;100973.50;1775286;79;21557;-62
2021/05/04 00:32:05;;;;;;;1.15;0.80;;;;;;;22.47;48.71;100978.80;1771451;79;21206;-63
2021/05/04 00:34:31;;;;;;;1.27;0.90;;;;;;;22.46;48.73;100989.63;1771701;79;21135;-62
2021/05/04 00:36:58;;;;;;;1.50;0.98;;;;;;;22.46;48.74;100986.04;1766811;79;21639;-62
2021/05/04 00:39:27;;;;;;;1.20;0.93;;;;;;;22.44;48.75;100984.19;1772553;79;21074;-62
2021/05/04 00:41:52;;;;;;;1.72;0.90;;;;;;;22.44;48.77;100979.45;1772608;79;21178;-63
2021/05/04 00:44:19;;;;;;;1.07;0.98;;;;;;;22.44;48.79;100986.95;1770290;79;21190;-64
2021/05/04 00:46:46;;;;;;;1.47;1.00;;;;;;;22.43;48.81;100983.93;1776580;79;21191;-62
2021/05/04 00:49:12;;;;;;;1.30;0.80;;;;;;;22.42;48.83;100976.75;1769982;79;21119;-62
2021/05/04 00:51:38;;;;;;;1.65;0.90;;;;;;;22.41;48.84;100980.09;1773923;79;21590;-62
2021/05/04 00:54:05;;;;;;;1.37;0.95;;;;;;;22.40;48.86;100979.05;1774482;79;21159;-62
2021/05/04 00:56:32;;;;;;;1.10;0.72;;;;;;;22.39;48.88;100974.64;1773542;79;21074;-62
2021/05/04 00:59:00;;;;;;;1.37;0.90;;;;;;;22.37;48.88;100979.11;1732596;80;21227;-62
2021/05/04 01:01:27;;;;;;;1.60;0.90;;;;;;;22.36;48.90;100978.06;1769067;79;21095;-62
2021/05/04 01:03:53;;;;;;;1.00;0.82;;;;;;;22.35;48.91;100980.02;1767568;79;21194;-62
2021/05/04 01:06:19;;;;;;;1.05;0.72;;;;;;;22.33;48.94;100981.72;1762726;79;21145;-61
2021/05/04 01:08:46;;;;;;;1.50;0.72;;;;;;;22.32;48.95;100977.88;1771256;79;21258;-62
2021/05/04 01:11:12;;;;;;;0.93;0.72;;;;;;;22.32;48.97;100979.26;1769438;79;21146;-62
2021/05/04 01:13:39;;;;;;;1.25;0.90;;;;;;;22.31;48.97;100987.36;1736940;79;21170;-62
2021/05/04 01:16:07;;;;;;;1.00;0.80;;;;;;;22.30;49.00;100985.72;1770185;79;21082;-62
2021/05/04 01:18:33;;;;;;;1.45;0.98;;;;;;;22.29;49.00;100981.30;1772074;79;21170;-62
2021/05/04 01:21:00;;;;;;;1.40;0.80;;;;;;;22.28;49.01;100981.05;1766336;79;21267;-62
2021/05/04 01:23:27;;;;;;;1.65;1.07;;;;;;;22.27;49.03;100979.45;1763184;79;21923;-62
2021/05/04 01:25:53;;;;;;;0.98;0.72;;;;;;;22.26;49.06;100980.58;1768592;79;21387;-62
2021/05/04 01:28:19;;;;;;;0.90;0.70;;;;;;;22.25;49.07;100984.48;1770696;79;21158;-62
2021/05/04 01:30:46;;;;;;;2.10;0.90;;;;;;;22.24;49.08;100981.45;1776411;79;21102;-62
2021/05/04 01:33:12;;;;;;;1.12;0.93;;;;;;;22.23;49.11;100988.16;1766115;79;21205;-63
2021/05/04 01:35:38;;;;;;;1.15;0.80;;;;;;;22.22;49.10;100983.75;1775895;79;21170;-63
2021/05/04 01:38:05;;;;;;;1.25;0.93;;;;;;;22.21;49.11;100984.89;1772196;79;21617;-62
2021/05/04 01:40:32;;;;;;;1.42;0.90;;;;;;;22.21;49.16;100986.27;1760649;79;21203;-63
2021/05/04 01:42:58;;;;;;;2.10;0.80;;;;;;;22.20;49.14;100991.56;1770223;79;21223;-62
2021/05/04 01:45:24;;;;;;;1.20;0.78;;;;;;;22.19;49.17;100988.56;1761207;79;21203;-63
2021/05/04 01:47:51;;;;;;;1.37;0.90;;;;;;;22.17;49.15;100991.66;1775660;79;22036;-63
2021/05/04 01:50:17;;;;;;;1.32;0.80;;;;;;;22.18;49.19;100990.52;1774084;79;21151;-62
2021/05/04 01:52:44;;;;;;;1.40;0.82;;;;;;;22.16;49.19;100991.40;1769034;79;21857;-62
2021/05/04 01:55:11;;;;;;;1.50;1.00;;;;;;;22.15;49.20;100988.97;1771730;79;21163;-62
2021/05/04 01:57:38;;;;;;;1.57;0.80;;;;;;;22.14;49.21;100989.53;1771089;79;21189;-62
2021/05/04 02:00:07;;;;;;;1.40;1.15;;;;;;;22.13;49.22;100986.52;1773165;79;21203;-63
2021/05/04 02:02:34;;;;;;;1.72;0.95;;;;;;;22.12;49.23;100986.26;1773437;79;21594;-62
2021/05/04 02:05:00;;;;;;;1.80;0.90;;;;;;;22.11;49.25;100986.00;1768901;79;21189;-62
2021/05/04 02:07:26;;;;;;;1.25;0.80;;;;;;;22.10;49.26;100991.89;1770979;79;21169;-62
2021/05/04 02:09:53;;;;;;;1.17;0.90;;;;;;;22.09;49.28;101003.54;1777283;79;21189;-62
2021/05/04 02:12:19;;;;;;;1.10;0.90;;;;;;;22.08;49.28;101006.05;1778113;79;21240;-62
2021/05/04 02:14:46;;;;;;;1.82;0.85;;;;;;;22.08;49.31;101005.23;1772770;79;21124;-62
2021/05/04 02:17:12;;;;;;;1.47;0.90;;;;;;;22.07;49.29;101003.03;1768269;79;21169;-63
2021/05/04 02:19:39;;;;;;;1.40;1.00;;;;;;;22.06;49.32;101001.42;1779469;79;21155;-62
2021/05/04 02:22:05;;;;;;;1.52;1.00;;;;;;;22.04;49.31;101006.45;1763060;79;21204;-62
2021/05/04 02:24:32;;;;;;;1.15;0.82;;;;;;;22.04;49.33;101013.38;1790442;78;21174;-62
2021/05/04 02:26:58;;;;;;;1.22;0.80;;;;;;;22.03;49.36;101016.46;1774581;78;21577;-63
2021/05/04 02:29:25;;;;;;;1.07;0.60;;;;;;;22.03;49.38;101020.62;1787336;78;22028;-62
2021/05/04 02:31:51;;;;;;;1.37;1.00;;;;;;;22.00;49.34;101022.66;1794819;78;21218;-62
2021/05/04 02:34:18;;;;;;;1.00;0.90;;;;;;;21.99;49.38;101018.25;1764451;80;22163;-62
2021/05/04 02:36:44;;;;;;;0.80;0.80;;;;;;;21.99;49.38;101016.30;1776707;78;21039;-62
2021/05/04 02:39:11;;;;;;;1.00;0.78;;;;;;;21.98;49.39;101014.66;1781161;78;21258;-62
2021/05/04 02:41:37;;;;;;;1.22;0.80;;;;;;;21.97;49.39;101016.38;1782394;78;21180;-62
2021/05/04 02:44:05;;;;;;;1.45;0.90;;;;;;;21.95;49.40;101018.08;1771783;79;21184;-62
2021/05/04 02:46:34;;;;;;;1.22;0.80;;;;;;;21.94;49.41;101017.03;1771442;79;21147;-62
2021/05/04 02:49:01;;;;;;;1.37;0.80;;;;;;;21.93;49.43;101022.32;1769606;79;21269;-62
2021/05/04 02:51:28;;;;;;;1.10;0.88;;;;;;;21.92;49.43;101022.03;1790407;79;21157;-62
2021/05/04 02:53:55;;;;;;;1.82;0.78;;;;;;;21.91;49.43;101025.37;1792966;78;21416;-63
2021/05/04 02:56:22;;;;;;;1.30;0.90;;;;;;;21.91;49.45;101028.14;1789137;78;20966;-62
2021/05/04 02:58:48;;;;;;;0.72;0.70;;;;;;;21.88;49.47;101025.45;1794645;79;21195;-62
2021/05/04 03:01:15;;;;;;;1.27;0.60;;;;;;;21.88;49.48;101026.84;1787642;79;21205;-62
2021/05/04 03:03:42;;;;;;;1.17;0.90;;;;;;;21.89;49.49;101029.05;1790921;78;21122;-62
2021/05/04 03:06:10;;;;;;;2.15;0.93;;;;;;;21.87;49.48;101025.77;1785080;78;21118;-61
2021/05/04 03:08:37;;;;;;;1.22;0.80;;;;;;;21.87;49.51;101032.69;1796833;79;21347;-61
2021/05/04 03:11:04;;;;;;;1.75;0.95;;;;;;;21.86;49.51;101034.64;1790433;79;21203;-62
2021/05/04 03:13:32;;;;;;;1.42;0.90;;;;;;;21.85;49.49;101038.54;1779934;78;21309;-62
2021/05/04 03:15:59;;;;;;;0.78;0.70;;;;;;;21.84;49.51;101043.85;1793278;79;21183;-62
2021/05/04 03:18:26;;;;;;;1.40;1.00;;;;;;;21.85;49.49;101044.67;1781401;79;21183;-61
2021/05/04 03:20:53;;;;;;;0.90;0.80;;;;;;;21.83;49.49;101044.98;1796032;79;21173;-61
2021/05/04 03:23:22;;;;;;;1.30;0.95;;;;;;;21.81;49.51;101041.70;1767220;79;22192;-62
2021/05/04 03:25:49;;;;;;;2.02;0.88;;;;;;;21.81;49.51;101044.47;1793016;79;21071;-61
2021/05/04 03:28:16;;;;;;;1.20;0.90;;;;;;;21.81;49.50;101056.94;1776261;79;21068;-62
2021/05/04 03:30:43;;;;;;;1.35;0.90;;;;;;;21.81;49.49;101057.53;1789755;79;21228;-61
2021/05/04 03:33:10;;;;;;;1.40;1.07;;;;;;;21.80;49.50;101051.17;1785929;78;21585;-62
2021/05/04 03:35:37;;;;;;;1.55;0.80;;;;;;;21.81;49.50;101050.61;1788354;79;22027;-62
2021/05/04 03:38:04;;;;;;;1.12;0.70;;;;;;;21.80;49.50;101062.81;1785628;78;21198;-62
2021/05/04 03:40:31;;;;;;;1.25;0.85;;;;;;;21.79;49.50;101068.09;1785601;79;21146;-61
2021/05/04 03:42:59;;;;;;;1.30;1.00;;;;;;;21.78;49.52;101065.89;1796812;79;21190;-62
2021/05/04 03:45:26;;;;;;;2.62;1.27;;;;;;;21.77;49.51;101065.64;1790715;79;21193;-62
2021/05/04 03:47:52;;;;;;;1.05;0.90;;;;;;;21.77;49.52;101071.73;1791247;79;21273;-61
2021/05/04 03:50:24;;;;;;;1.40;1.00;;;;;;;21.76;49.49;101072.90;1788480;79;21072;-62
2021/05/04 03:52:51;;;;;;;1.22;0.95;;;;;;;21.76;49.50;101079.26;1784927;79;21183;-62
2021/05/04 03:55:18;;;;;;;1.55;1.10;;;;;;;21.75;49.48;101074.03;1787736;78;21984;-61
2021/05/04 03:57:44;;;;;;;2.50;1.27;;;;;;;21.74;49.49;101084.28;1795336;79;21575;-62
2021/05/04 04:00:12;;;;;;;1.80;1.50;;;;;;;21.73;49.48;101085.41;1793722;79;21302;-61
2021/05/04 04:02:39;;;;;;;2.47;1.17;;;;;;;21.73;49.49;101084.59;1784486;78;21239;-61
2021/05/04 04:05:07;;;;;;;2.05;1.50;;;;;;;21.72;49.49;101085.75;1789858;78;21096;-61
2021/05/04 04:07:34;;;;;;;2.00;1.25;;;;;;;21.72;49.50;101092.11;1795621;78;21229;-62
2021/05/04 04:10:00;;;;;;;1.77;1.10;;;;;;;21.74;49.51;101086.23;1772136;79;21146;-62
2021/05/04 04:12:27;;;;;;;2.00;1.27;;;;;;;21.77;49.53;101091.95;1779005;79;21166;-62
2021/05/04 04:14:53;;;;;;;2.20;1.25;;;;;;;21.82;49.50;101095.14;1778334;79;21146;-61
2021/05/04 04:17:21;;;;;;;1.80;1.00;;;;;;;21.86;49.47;101091.98;1780954;78;21145;-61
2021/05/04 04:19:47;;;;;;;1.50;1.10;;;;;;;21.90;49.46;101097.73;1782727;79;21135;-61
2021/05/04 04:22:14;;;;;;;1.67;1.20;;;;;;;21.94;49.42;101095.98;1768061;79;21135;-62
2021/05/04 04:24:40;;;;;;;1.67;1.20;;;;;;;21.99;49.40;101099.98;1763542;79;22923;-62
2021/05/04 04:27:07;;;;;;;1.67;1.30;;;;;;;22.02;49.35;101104.33;1764789;79;21082;-61
2021/05/04 04:29:33;;;;;;;1.22;0.85;;;;;;;22.07;49.32;101108.89;1780581;79;21270;-61
2021/05/04 04:32:04;;;;;;;1.87;1.10;;;;;;;22.10;49.30;101098.57;1792411;79;21130;-61
2021/05/04 04:34:28;;;;;;;1.30;1.10;;;;;;;22.12;49.28;101096.28;1780102;78;21136;-61
2021/05/04 04:36:55;;;;;;;1.22;1.00;;;;;;;22.16;49.26;101105.02;1789427;79;22200;-62
2021/05/04 04:39:22;;;;;;;1.50;1.17;;;;;;;22.19;49.24;101100.80;1784966;79;21047;-63
2021/05/04 04:41:48;;;;;;;1.92;1.10;;;;;;;22.21;49.20;101101.28;1786956;79;21553;-61
2021/05/04 04:44:15;;;;;;;2.62;1.32;;;;;;;22.24;49.22;101100.63;1787575;79;21107;-60
2021/05/04 04:46:41;;;;;;;1.67;1.37;;;;;;;22.27;49.19;101105.55;1793856;78;21126;-61
2021/05/04 04:49:09;;;;;;;1.70;1.17;;;;;;;22.29;49.19;101108.81;1779690;78;21248;-61
2021/05/04 04:51:36;;;;;;;2.00;1.20;;;;;;;22.32;49.18;101106.77;1787262;78;21154;-61
2021/05/04 04:54:03;;;;;;;2.12;1.32;;;;;;;22.34;49.15;101110.05;1790472;79;21197;-62
2021/05/04 04:56:30;;;;;;;2.58;1.17;;;;;;;22.37;49.15;101117.72;1787542;79;21115;-61
2021/05/04 04:58:57;;;;;;;1.80;1.20;;;;;;;22.39;49.14;101117.41;1782415;79;21128;-62
2021/05/04 05:01:23;;;;;;;1.65;1.25;;;;;;;22.41;49.14;101124.25;1792387;79;22120;-62
2021/05/04 05:03:50;;;;;;;1.87;1.20;;;;;;;22.45;49.14;101136.92;1790284;79;21130;-62
2021/05/04 05:06:16;;;;;;;2.62;1.15;;;;;;;22.46;49.15;101136.58;1782535;79;21185;-62
2021/05/04 05:08:42;;;;;;;2.35;1.27;;;;;;;22.48;49.14;101130.16;1790299;78;21149;-62
2021/05/04 05:11:09;;;;;;;2.12;1.30;;;;;;;22.50;49.14;101133.41;1787531;79;21063;-61
2021/05/04 05:13:35;;;;;;;1.35;0.90;;;;;;;22.52;49.12;101130.32;1787549;78;21549;-61
2021/05/04 05:16:01;;;;;;;2.12;1.40;;;;;;;22.54;49.13;101139.94;1785103;78;21157;-62
2021/05/04 05:18:28;;;;;;;1.80;1.50;;;;;;;22.57;49.11;101136.55;1780402;79;21140;-62
2021/05/04 05:20:54;;;;;;;2.33;1.50;;;;;;;22.59;49.09;101131.47;1788281;78;21170;-62
2021/05/04 05:23:21;;;;;;;2.20;1.37;;;;;;;22.61;49.11;101138.91;1792085;78;21229;-62
2021/05/04 05:25:47;;;;;;;1.95;1.30;;;;;;;22.63;49.09;101137.19;1789256;79;21630;-61
2021/05/04 05:28:14;;;;;;;2.20;1.47;;;;;;;22.65;49.09;101140.47;1791307;79;21068;-61
2021/05/04 05:30:43;;;;;;;2.95;1.30;;;;;;;22.67;49.10;101138.99;1792965;78;21171;-62
2021/05/04 05:33:10;;;;;;;1.50;1.17;;;;;;;22.67;49.09;101132.06;1788742;79;21688;-62
2021/05/04 05:35:36;;;;;;;2.47;1.40;;;;;;;22.71;49.07;101140.58;1789488;79;21659;-61
2021/05/04 05:38:04;;;;;;;2.08;1.25;;;;;;;22.71;49.06;101134.46;1791077;79;22107;-62
2021/05/04 05:40:32;;;;;;;2.50;1.50;;;;;;;22.72;49.07;101137.48;1788582;79;21088;-62
2021/05/04 05:42:58;;;;;;;3.05;1.55;;;;;;;22.72;49.07;101140.27;1795430;79;21602;-62
2021/05/04 05:45:25;;;;;;;1.87;1.10;;;;;;;22.71;49.06;101144.17;1790089;79;21136;-62
2021/05/04 05:47:52;;;;;;;1.85;1.30;;;;;;;22.73;49.06;101147.45;1793334;78;21164;-61
2021/05/04 05:50:18;;;;;;;1.82;1.20;;;;;;;22.73;49.04;101151.61;1776101;78;21200;-62
2021/05/04 05:52:45;;;;;;;2.22;1.20;;;;;;;22.74;49.03;101151.83;1787040;79;21090;-61
2021/05/04 05:55:12;;;;;;;1.70;1.10;;;;;;;22.75;49.02;101149.88;1788419;79;21201;-62
2021/05/04 05:57:38;;;;;;;2.27;1.42;;;;;;;22.74;49.02;101145.50;1782652;78;21126;-62
2021/05/04 06:00:06;;;;;;;2.22;1.40;;;;;;;22.75;49.02;101145.72;1766137;79;21193;-61
2021/05/04 06:02:33;;;;;;;1.55;1.20;;;;;;;22.75;48.98;101150.70;1785504;79;21538;-62
2021/05/04 06:04:59;;;;;;;1.80;1.20;;;;;;;22.75;48.98;101145.72;1777324;79;21553;-62
2021/05/04 06:07:26;;;;;;;1.70;1.30;;;;;;;22.74;48.97;101146.28;1773714;79;21122;-62
2021/05/04 06:09:53;;;;;;;1.37;1.07;;;;;;;22.74;48.97;101151.05;1777916;79;21503;-62
2021/05/04 06:12:19;;;;;;;3.33;1.40;;;;;;;22.74;48.95;101151.83;1779314;79;21580;-62
2021/05/04 06:14:46;;;;;;;2.25;1.20;;;;;;;22.73;48.96;101151.61;1772123;79;21020;-61
2021/05/04 06:17:12;;;;;;;2.00;1.40;;;;;;;22.73;48.93;101154.38;1773480;79;21191;-62
2021/05/04 06:19:38;;;;;;;2.10;1.40;;;;;;;22.74;48.96;101153.81;1776053;79;21127;-61
2021/05/04 06:22:05;;;;;;;2.45;1.40;;;;;;;22.72;48.96;101151.36;1778495;79;21167;-61
2021/05/04 06:24:31;;;;;;;2.20;1.40;;;;;;;22.71;48.94;101149.72;1777322;79;21192;-61
2021/05/04 06:26:58;;;;;;;2.25;1.50;;;;;;;22.71;48.93;101155.27;1771622;79;21051;-61
2021/05/04 06:29:24;;;;;;;2.17;1.40;;;;;;;22.70;48.95;101145.90;1782593;79;22080;-63
2021/05/04 06:31:57;;;;;;;2.47;1.60;;;;;;;22.68;48.93;101147.56;1774253;79;21165;-62
2021/05/04 06:34:19;;;;;;;1.15;1.05;;;;;;;22.66;48.95;101139.34;1772910;79;21114;-62
2021/05/04 06:36:46;;;;;;;2.12;1.35;;;;;;;22.64;48.95;101145.19;1763717;79;21108;-62
2021/05/04 06:39:12;;;;;;;2.22;1.62;;;;;;;22.63;48.95;101143.55;1770508;79;22255;-62
2021/05/04 06:41:38;;;;;;;1.82;1.22;;;;;;;22.62;48.94;101148.84;1779537;79;21039;-62
2021/05/04 06:44:06;;;;;;;2.58;1.67;;;;;;;22.56;48.93;101146.00;1773838;79;21143;-62
2021/05/04 06:46:32;;;;;;;2.52;1.60;;;;;;;22.58;48.93;101143.70;1772043;79;21034;-62
2021/05/04 06:49:00;;;;;;;3.65;1.45;;;;;;;22.58;48.94;101145.09;1779031;79;21204;-62
2021/05/04 06:51:27;;;;;;;1.75;1.27;;;;;;;22.58;48.92;101141.49;1777630;79;21197;-62
2021/05/04 06:53:53;;;;;;;1.57;1.30;;;;;;;22.57;48.93;101135.72;1781224;79;21175;-62
2021/05/04 06:56:20;;;;;;;1.98;1.37;;;;;;;22.56;48.90;101134.91;1772955;79;21102;-62
2021/05/04 06:58:47;;;;;;;2.80;2.12;;;;;;;22.55;48.91;101133.26;1771700;79;21263;-61
2021/05/04 07:01:15;;;;;;;2.22;1.87;;;;;;;22.54;48.91;101128.03;1760195;79;21131;-62
2021/05/04 07:03:42;;;;;;;2.15;1.52;;;;;;;22.52;48.90;101120.05;1773651;79;21534;-62
2021/05/04 07:06:09;;;;;;;2.75;1.70;;;;;;;22.51;48.91;101114.25;1767382;79;21589;-62
2021/05/04 07:08:35;;;;;;;3.10;1.70;;;;;;;22.50;48.91;101120.93;1773597;79;21131;-62
2021/05/04 07:11:02;;;;;;;2.40;1.65;;;;;;;22.50;48.92;101115.95;1770656;79;21237;-62
2021/05/04 07:13:28;;;;;;;2.60;1.67;;;;;;;22.47;48.90;101114.66;1769216;79;21082;-61
2021/05/04 07:15:55;;;;;;;4.05;1.52;;;;;;;22.48;48.91;101112.70;1791181;78;21217;-62
2021/05/04 07:18:24;;;;;;;1.98;1.37;;;;;;;22.46;48.90;101107.47;1783059;78;21142;-61
2021/05/04 07:20:51;;;;;;;2.25;1.40;;;;;;;22.46;48.90;101108.85;1774743;79;21214;-62
2021/05/04 07:23:17;;;;;;;3.15;1.72;;;;;;;22.44;48.90;101112.53;1773450;79;21145;-63
2021/05/04 07:25:44;;;;;;;3.05;1.70;;;;;;;22.44;48.90;101105.60;1773093;79;21218;-62
2021/05/04 07:28:11;;;;;;;2.55;1.60;;;;;;;22.43;48.89;101108.12;1773288;79;21048;-62
2021/05/04 07:30:41;;;;;;;1.92;1.50;;;;;;;22.43;48.89;101110.08;1765498;79;21130;-62
2021/05/04 07:33:05;;;;;;;1.62;1.20;;;;;;;22.42;48.90;101109.81;1768516;79;21551;-62
2021/05/04 07:35:32;;;;;;;2.05;1.50;;;;;;;22.41;48.88;101104.02;1770203;79;21151;-61
2021/05/04 07:37:58;;;;;;;2.30;1.42;;;;;;;22.41;48.88;101101.25;1786077;79;21211;-62
2021/05/04 07:40:25;;;;;;;2.80;1.45;;;;;;;22.40;48.91;101102.41;1768305;79;21582;-62
2021/05/04 07:42:52;;;;;;;1.87;1.50;;;;;;;22.38;48.89;101095.79;1764250;79;21165;-62
2021/05/04 07:45:18;;;;;;;2.33;1.65;;;;;;;22.37;48.86;101102.47;1770910;79;21107;-62
2021/05/04 07:47:50;;;;;;;3.00;1.70;;;;;;;22.38;48.87;101099.13;1776832;79;21182;-62
2021/05/04 07:50:15;;;;;;;2.30;1.25;;;;;;;22.35;48.88;101099.22;1769524;79;21152;-62
2021/05/04 07:52:41;;;;;;;3.20;1.52;;;;;;;22.36;48.87;101098.65;1774347;79;21336;-62
2021/05/04 07:55:09;;;;;;;2.08;1.42;;;;;;;22.34;48.88;101107.28;1765942;79;21213;-62
2021/05/04 07:57:36;;;;;;;3.08;1.65;;;;;;;22.33;48.89;101099.53;1770373;79;21443;-61
2021/05/04 08:00:05;;;;;;;2.90;1.55;;;;;;;22.33;48.88;101097.32;1784734;79;21594;-62
2021/05/04 08:02:31;;;;;;;1.95;1.60;;;;;;;22.32;48.88;101090.14;1787536;79;21067;-61
2021/05/04 08:04:58;;;;;;;3.40;1.70;;;;;;;22.33;48.87;101093.16;1773102;78;21739;-62
2021/05/04 08:07:24;;;;;;;1.90;1.30;;;;;;;22.32;48.85;101092.34;1768863;80;21169;-61
2021/05/04 08:09:52;;;;;;;2.87;1.57;;;;;;;22.32;48.84;101093.73;1776289;79;21189;-62
2021/05/04 08:12:18;;;;;;;2.27;1.50;;;;;;;22.33;48.83;101082.89;1771579;79;21162;-61
2021/05/04 08:14:45;;;;;;;2.02;1.60;;;;;;;22.34;48.82;101079.55;1784609;79;21114;-62
2021/05/04 08:17:18;;;;;;;1.92;1.42;;;;;;;22.36;48.81;101076.48;1770550;79;23578;-62
2021/05/04 08:19:43;;;;;;;2.15;1.60;;;;;;;22.37;48.81;101079.47;1769068;79;21863;-61
2021/05/04 08:22:10;;;;;;;2.33;1.62;;;;;;;22.37;48.79;101078.91;1765971;79;21131;-61
2021/05/04 08:24:37;;;;;;;2.33;1.55;;;;;;;22.38;48.78;101069.45;1766415;79;21082;-62
2021/05/04 08:27:05;;;;;;;2.10;1.52;;;;;;;22.39;48.77;101068.33;1768742;79;21182;-62
2021/05/04 08:29:33;;;;;;;2.22;1.65;;;;;;;22.41;48.77;101070.75;1780360;79;21196;-61
2021/05/04 08:32:02;;;;;;;2.55;1.70;;;;;;;22.44;48.75;101068.73;1764973;79;21218;-62
2021/05/04 08:34:31;;;;;;;1.95;1.50;;;;;;;22.45;48.71;101065.62;1775856;79;21470;-62
2021/05/04 08:36:57;;;;;;;2.05;1.47;;;;;;;22.48;48.69;101065.56;1772095;79;21135;-63
2021/05/04 08:39:24;;;;;;;2.25;1.60;;;;;;;22.49;48.68;101063.05;1771096;79;21225;-62
2021/05/04 08:41:51;;;;;;;2.02;1.60;;;;;;;22.49;48.65;101056.11;1770664;79;21194;-62
2021/05/04 08:44:20;;;;;;;3.42;1.50;;;;;;;22.49;48.64;101063.83;1777312;79;21189;-61
2021/05/04 08:46:47;;;;;;;2.22;1.40;;;;;;;22.49;48.66;101063.05;1771817;79;21068;-62
2021/05/04 08:49:15;;;;;;;2.37;1.57;;;;;;;22.50;48.64;101053.00;1769004;79;21142;-62
2021/05/04 08:51:49;;;;;;;1.80;1.40;;;;;;;22.52;48.64;101065.98;1771615;79;21559;-62
2021/05/04 08:54:17;;;;;;;2.10;1.50;;;;;;;22.51;48.64;101050.48;1776312;79;21269;-62
2021/05/04 08:56:44;;;;;;;1.80;1.57;;;;;;;22.52;48.63;101053.50;1772127;79;21549;-62
2021/05/04 08:59:10;;;;;;;3.87;1.52;;;;;;;22.54;48.59;101054.55;1770898;79;21121;-62
2021/05/04 09:01:38;;;;;;;1.82;1.52;;;;;;;22.55;48.58;101049.25;1771069;79;21146;-62
2021/05/04 09:04:10;;;;;;;2.12;1.60;;;;;;;22.56;48.59;101050.33;1769488;79;21104;-61
2021/05/04 09:06:41;;;;;;;1.77;1.45;;;;;;;22.56;48.57;101047.55;1766954;79;21459;-63
2021/05/04 09:17:23;;;;;;;1.87;1.35;;;;;;;22.60;48.55;101043.55;1778487;79;21114;-61
2021/05/04 09:22:39;;;;;;;1.98;1.45;;;;;;;22.58;48.54;101030.00;1776956;79;21207;-61
2021/05/04 09:25:09;;;;;;;3.42;2.05;;;;;;;22.59;48.55;101032.21;1772978;79;21106;-62
2021/05/04 09:27:36;;;;;;;2.33;1.82;;;;;;;22.58;48.54;101030.00;1728420;79;21227;-63
2021/05/04 09:30:04;;;;;;;2.27;1.65;;;;;;;22.57;48.56;101026.19;1786611;78;21256;-62
2021/05/04 09:32:32;;;;;;;2.75;1.85;;;;;;;22.56;48.56;101021.20;1730863;80;21166;-61
2021/05/04 09:35:02;;;;;;;1.95;1.70;;;;;;;22.57;48.59;101020.08;1790648;78;21179;-65
2021/05/04 09:37:41;;;;;;;2.00;1.70;;;;;;;22.57;48.58;101019.26;1786515;78;21193;-61
2021/05/04 09:40:27;;;;;;;1.92;1.50;;;;;;;22.56;48.59;101021.20;1774664;78;21305;-61
2021/05/04 09:43:08;;;;;;;1.80;1.45;;;;;;;22.57;48.60;101017.30;1788382;78;21133;-61
2021/05/04 09:45:39;;;;;;;2.10;1.35;;;;;;;22.56;48.60;101010.69;1762598;79;22095;-61
2021/05/04 09:48:16;;;;;;;2.00;1.62;;;;;;;22.55;48.61;101006.27;1776306;79;21136;-62
2021/05/04 09:50:58;;;;;;;2.25;1.70;;;;;;;22.55;48.62;101001.55;1770733;79;21093;-61
2021/05/04 09:53:57;;;;;;;2.58;1.77;;;;;;;22.54;48.63;100994.36;1780478;78;21191;-62
2021/05/04 09:56:20;;;;;;;2.33;1.60;;;;;;;22.54;48.65;100997.70;1786884;79;21052;-61
2021/05/04 09:58:49;;;;;;;2.67;1.80;;;;;;;22.54;48.67;100997.14;1785361;78;22200;-62
2021/05/04 10:01:18;;;;;;;2.12;1.50;;;;;;;22.56;48.66;100995.44;1791652;79;21130;-61
2021/05/04 10:03:46;;;;;;;2.08;1.67;;;;;;;22.58;48.67;100989.80;1794895;79;21172;-63
2021/05/04 10:06:15;;;;;;;2.35;1.70;;;;;;;22.61;48.67;100993.89;1789124;78;21146;-62
2021/05/04 10:08:42;;;;;;;3.40;1.72;;;;;;;22.64;48.69;100991.27;1789248;79;21175;-61
2021/05/04 10:11:14;;;;;;;2.90;1.42;;;;;;;22.68;48.66;100995.59;1792917;78;21188;-61
2021/05/04 10:13:42;;;;;;;2.05;1.70;;;;;;;22.72;48.65;100993.25;1788556;79;21530;-62
2021/05/04 10:16:10;;;;;;;2.83;2.00;;;;;;;22.74;48.62;100988.17;1788387;78;21163;-61
2021/05/04 10:18:37;;;;;;;2.33;1.62;;;;;;;22.76;48.61;100986.48;1790351;79;21070;-62
2021/05/04 10:21:07;;;;;;;2.45;1.90;;;;;;;22.77;48.61;100985.34;1785889;79;21114;-62
2021/05/04 10:23:35;;;;;;;2.37;1.77;;;;;;;22.79;48.60;100983.64;1791658;78;21192;-61
2021/05/04 10:26:09;;;;;;;3.27;1.92;;;;;;;22.80;48.60;100982.47;1788022;79;21120;-61
2021/05/04 10:28:36;;;;;;;2.00;1.65;;;;;;;22.81;48.60;100978.56;1791591;79;21130;-62
2021/05/04 10:31:06;;;;;;;2.45;1.57;;;;;;;22.82;48.59;100969.10;1783735;79;21224;-62
2021/05/04 10:33:39;;;;;;;3.20;1.83;;;;;;;22.81;48.60;100965.51;1770712;80;21202;-62
2021/05/04 10:36:06;;;;;;;3.22;1.98;;;;;;;22.83;48.60;100967.97;1783451;79;22128;-61
2021/05/04 10:38:54;;;;;;;2.35;1.90;;;;;;;22.84;48.59;100959.30;1789100;78;21122;-62
2021/05/04 10:41:22;;;;;;;2.20;1.75;;;;;;;22.86;48.59;100956.20;1789062;78;21011;-62
2021/05/04 10:44:05;;;;;;;2.17;1.60;;;;;;;22.89;48.57;100959.70;1783053;79;21593;-63
2021/05/04 10:46:41;;;;;;;3.55;1.57;;;;;;;22.96;48.56;100948.33;1865130;75;21801;-59
2021/05/04 10:49:19;;;;;;;2.85;1.90;;;;;;;22.95;48.54;100951.45;1830949;77;21364;-59
2021/05/04 10:51:52;;;;;;;2.70;1.60;;;;;;;22.97;48.55;100956.09;1830056;77;21132;-63
2021/05/04 10:54:22;;;;;;;2.30;1.72;;;;;;;23.02;48.55;100942.86;1831901;77;21070;-62
2021/05/04 10:57:01;;;;;;;3.58;1.60;;;;;;;23.06;48.52;100949.95;1797521;78;20961;-62
2021/05/04 10:59:42;;;;;;;2.58;1.47;;;;;;;23.09;48.49;100953.44;1779016;80;20946;-62
2021/05/04 11:02:20;;;;;;;2.45;1.40;;;;;;;23.12;48.48;100947.25;1778891;78;21051;-61
2021/05/04 11:04:48;;;;;;;2.42;1.90;;;;;;;23.16;48.48;100949.03;1773136;78;21361;-63
2021/05/04 11:07:43;;;;;;;2.02;1.52;;;;;;;23.21;48.43;100941.09;1799478;78;21009;-60
2021/05/04 11:10:11;;;;;;;2.27;1.87;;;;;;;23.23;48.42;100936.83;1791551;78;21181;-61
2021/05/04 11:12:38;;;;;;;1.98;1.55;;;;;;;23.26;48.39;100937.30;1760706;80;21373;-61
2021/05/04 11:15:24;;;;;;;2.62;1.52;;;;;;;23.26;48.38;100927.58;1793089;78;21523;-61
2021/05/04 11:17:59;;;;;;;2.87;1.80;;;;;;;23.32;48.39;100921.53;1856055;75;22768;-60
2021/05/04 11:20:39;;;;;;;2.42;1.50;;;;;;;23.29;48.40;100919.43;1831256;77;21016;-60
2021/05/04 11:23:08;;;;;;;2.60;1.77;;;;;;;23.33;48.38;100920.96;1827384;77;21104;-62
2021/05/04 11:25:41;;;;;;;2.47;1.60;;;;;;;23.36;48.38;100918.89;1832426;77;20996;-61
2021/05/04 11:28:07;;;;;;;2.67;1.70;;;;;;;23.38;48.38;100922.17;1833130;77;21327;-61
2021/05/04 11:30:42;;;;;;;3.15;1.37;;;;;;;23.39;48.36;100920.42;1830807;77;21040;-61
2021/05/04 11:33:29;;;;;;;2.20;1.70;;;;;;;23.41;48.35;100918.14;1832260;77;20948;-61
2021/05/04 11:35:56;;;;;;;3.42;1.30;;;;;;;23.44;48.34;100908.35;1832931;77;21105;-61
2021/05/04 11:38:24;;;;;;;2.15;1.70;;;;;;;23.46;48.32;100905.50;1829675;77;21083;-61